sensor_id;sensor_type;location;lat;lon;timestamp;pressure;altitude;pressure_sealevel;temperature;humidity
48216;BME280;34005;48.844;10.098;2023-03-01T00:01:39;97346.56;;;0.94;56.48
48216;BME280;34005;48.844;10.098;2023-03-01T00:04:07;97354.81;;;0.99;56.94
48216;BME280;34005;48.844;10.098;2023-03-01T00:06:35;97355.72;;;0.98;56.53
48216;BME280;34005;48.844;10.098;2023-03-01T00:09:04;97356.75;;;0.95;56.61
48216;BME280;34005;48.844;10.098;2023-03-01T00:11:32;97355.22;;;0.93;56.35
48216;BME280;34005;48.844;10.098;2023-03-01T00:14:01;97351.19;;;0.89;56.65
48216;BME280;34005;48.844;10.098;2023-03-01T00:16:32;97363.31;;;0.87;56.77
48216;BME280;34005;48.844;10.098;2023-03-01T00:19:00;97359.94;;;0.86;56.88
48216;BME280;34005;48.844;10.098;2023-03-01T00:21:28;97363.53;;;0.84;56.94
48216;BME280;34005;48.844;10.098;2023-03-01T00:23:56;97357.38;;;0.86;58.25
48216;BME280;34005;48.844;10.098;2023-03-01T00:26:26;97354.41;;;0.92;57.76
48216;BME280;34005;48.844;10.098;2023-03-01T00:28:54;97350.69;;;0.96;57.76
48216;BME280;34005;48.844;10.098;2023-03-01T00:31:25;97352.25;;;0.99;58.15
48216;BME280;34005;48.844;10.098;2023-03-01T00:33:54;97347.91;;;0.99;57.54
48216;BME280;34005;48.844;10.098;2023-03-01T00:36:25;97348.94;;;0.97;57.43
48216;BME280;34005;48.844;10.098;2023-03-01T00:38:53;97345.84;;;0.92;57.19
48216;BME280;34005;48.844;10.098;2023-03-01T00:41:21;97349.56;;;0.88;57.36
48216;BME280;34005;48.844;10.098;2023-03-01T00:43:50;97347.72;;;0.90;57.99
48216;BME280;34005;48.844;10.098;2023-03-01T00:46:22;97343.28;;;0.92;57.36
48216;BME280;34005;48.844;10.098;2023-03-01T00:48:50;97342.59;;;0.90;57.52
48216;BME280;34005;48.844;10.098;2023-03-01T00:51:19;97347.72;;;0.90;57.75
48216;BME280;34005;48.844;10.098;2023-03-01T00:53:50;97350.97;;;0.92;57.84
48216;BME280;34005;48.844;10.098;2023-03-01T00:56:18;97347.91;;;0.99;58.39
48216;BME280;34005;48.844;10.098;2023-03-01T00:58:46;97354.41;;;1.05;57.67
48216;BME280;34005;48.844;10.098;2023-03-01T01:01:17;97353.56;;;1.05;57.67
48216;BME280;34005;48.844;10.098;2023-03-01T01:03:46;97355.53;;;1.01;56.99
48216;BME280;34005;48.844;10.098;2023-03-01T01:06:16;97353.88;;;1.00;57.54
48216;BME280;34005;48.844;10.098;2023-03-01T01:08:44;97341.97;;;0.99;57.47
48216;BME280;34005;48.844;10.098;2023-03-01T01:11:12;97340.09;;;1.01;57.53
48216;BME280;34005;48.844;10.098;2023-03-01T01:13:40;97339.06;;;1.03;57.33
48216;BME280;34005;48.844;10.098;2023-03-01T01:16:08;97340.09;;;1.01;57.54
48216;BME280;34005;48.844;10.098;2023-03-01T01:18:37;97341.34;;;0.95;57.41
48216;BME280;34005;48.844;10.098;2023-03-01T01:21:06;97334.88;;;0.90;57.29
48216;BME280;34005;48.844;10.098;2023-03-01T01:23:34;97331.19;;;0.81;57.51
48216;BME280;34005;48.844;10.098;2023-03-01T01:26:06;97325.31;;;0.79;58.52
48216;BME280;34005;48.844;10.098;2023-03-01T01:28:35;97324.59;;;0.77;57.79
48216;BME280;34005;48.844;10.098;2023-03-01T01:31:03;97328.38;;;0.71;57.61
48216;BME280;34005;48.844;10.098;2023-03-01T01:33:30;97324.28;;;0.69;58.06
48216;BME280;34005;48.844;10.098;2023-03-01T01:35:59;97317.63;;;0.66;57.99
48216;BME280;34005;48.844;10.098;2023-03-01T01:38:27;97315.13;;;0.65;58.02
48216;BME280;34005;48.844;10.098;2023-03-01T01:40:54;97310.81;;;0.65;58.15
48216;BME280;34005;48.844;10.098;2023-03-01T01:43:24;97307.44;;;0.65;58.59
48216;BME280;34005;48.844;10.098;2023-03-01T01:45:55;97298.81;;;0.66;58.64
48216;BME280;34005;48.844;10.098;2023-03-01T01:48:29;97303.13;;;0.65;58.50
48216;BME280;34005;48.844;10.098;2023-03-01T01:51:13;97301.41;;;0.66;58.46
48216;BME280;34005;48.844;10.098;2023-03-01T01:53:42;97304.78;;;0.66;58.51
48216;BME280;34005;48.844;10.098;2023-03-01T01:56:15;97300.03;;;0.60;58.59
48216;BME280;34005;48.844;10.098;2023-03-01T01:58:44;97301.91;;;0.58;58.42
48216;BME280;34005;48.844;10.098;2023-03-01T02:01:13;97299.31;;;0.58;58.76
48216;BME280;34005;48.844;10.098;2023-03-01T02:03:43;97293.25;;;0.59;58.80
48216;BME280;34005;48.844;10.098;2023-03-01T02:06:17;97295.63;;;0.62;58.73
48216;BME280;34005;48.844;10.098;2023-03-01T02:08:48;97285.38;;;0.62;58.37
48216;BME280;34005;48.844;10.098;2023-03-01T02:11:17;97276.00;;;0.61;58.33
48216;BME280;34005;48.844;10.098;2023-03-01T02:13:47;97280.41;;;0.59;58.51
48216;BME280;34005;48.844;10.098;2023-03-01T02:16:16;97273.56;;;0.59;58.93
48216;BME280;34005;48.844;10.098;2023-03-01T02:18:44;97277.84;;;0.59;58.87
48216;BME280;34005;48.844;10.098;2023-03-01T02:21:26;97275.19;;;0.60;60.26
48216;BME280;34005;48.844;10.098;2023-03-01T02:23:59;97275.81;;;0.64;58.83
48216;BME280;34005;48.844;10.098;2023-03-01T02:26:35;97270.88;;;0.61;58.59
48216;BME280;34005;48.844;10.098;2023-03-01T02:29:06;97270.28;;;0.57;58.68
48216;BME280;34005;48.844;10.098;2023-03-01T02:31:34;97275.59;;;0.54;58.75
48216;BME280;34005;48.844;10.098;2023-03-01T02:34:13;97263.06;;;0.50;59.13
48216;BME280;34005;48.844;10.098;2023-03-01T02:36:45;97266.34;;;0.52;59.30
48216;BME280;34005;48.844;10.098;2023-03-01T02:39:15;97263.59;;;0.55;59.31
48216;BME280;34005;48.844;10.098;2023-03-01T02:41:46;97258.97;;;0.60;59.12
48216;BME280;34005;48.844;10.098;2023-03-01T02:44:16;97263.06;;;0.63;59.13
48216;BME280;34005;48.844;10.098;2023-03-01T02:46:46;97249.91;;;0.67;59.22
48216;BME280;34005;48.844;10.098;2023-03-01T02:49:24;97265.84;;;0.72;59.59
48216;BME280;34005;48.844;10.098;2023-03-01T02:52:16;97248.56;;;0.74;59.80
48216;BME280;34005;48.844;10.098;2023-03-01T02:54:50;97250.94;;;0.77;58.90
48216;BME280;34005;48.844;10.098;2023-03-01T02:57:20;97244.06;;;0.78;58.78
48216;BME280;34005;48.844;10.098;2023-03-01T02:59:51;97244.69;;;0.81;58.95
48216;BME280;34005;48.844;10.098;2023-03-01T03:02:20;97239.31;;;0.85;58.55
48216;BME280;34005;48.844;10.098;2023-03-01T03:05:08;97236.66;;;0.86;58.55
48216;BME280;34005;48.844;10.098;2023-03-01T03:07:37;97231.59;;;0.85;58.24
48216;BME280;34005;48.844;10.098;2023-03-01T03:10:07;97226.69;;;0.81;58.53
48216;BME280;34005;48.844;10.098;2023-03-01T03:12:37;97225.97;;;0.79;58.31
48216;BME280;34005;48.844;10.098;2023-03-01T03:15:08;97222.47;;;0.80;58.84
48216;BME280;34005;48.844;10.098;2023-03-01T03:17:40;97217.25;;;0.82;58.92
48216;BME280;34005;48.844;10.098;2023-03-01T03:20:11;97219.59;;;0.85;58.81
48216;BME280;34005;48.844;10.098;2023-03-01T03:22:46;97212.81;;;0.84;58.58
48216;BME280;34005;48.844;10.098;2023-03-01T03:25:14;97214.56;;;0.84;58.49
48216;BME280;34005;48.844;10.098;2023-03-01T03:27:43;97210.25;;;0.84;58.66
48216;BME280;34005;48.844;10.098;2023-03-01T03:30:14;97208.59;;;0.83;58.34
48216;BME280;34005;48.844;10.098;2023-03-01T03:32:44;97212.72;;;0.86;58.65
48216;BME280;34005;48.844;10.098;2023-03-01T03:35:19;97216.09;;;0.86;58.38
48216;BME280;34005;48.844;10.098;2023-03-01T03:37:47;97214.34;;;0.87;58.68
48216;BME280;34005;48.844;10.098;2023-03-01T03:40:32;97207.34;;;0.89;58.66
48216;BME280;34005;48.844;10.098;2023-03-01T03:43:00;97210.66;;;0.91;58.41
48216;BME280;34005;48.844;10.098;2023-03-01T03:45:29;97213.22;;;0.91;58.63
48216;BME280;34005;48.844;10.098;2023-03-01T03:47:59;97208.88;;;0.91;58.44
48216;BME280;34005;48.844;10.098;2023-03-01T03:50:27;97206.22;;;0.93;58.33
48216;BME280;34005;48.844;10.098;2023-03-01T03:52:55;97208.19;;;0.89;58.19
48216;BME280;34005;48.844;10.098;2023-03-01T03:55:23;97194.75;;;0.86;58.58
48216;BME280;34005;48.844;10.098;2023-03-01T03:57:57;97198.22;;;0.85;58.81
48216;BME280;34005;48.844;10.098;2023-03-01T04:00:29;97186.09;;;0.87;58.32
48216;BME280;34005;48.844;10.098;2023-03-01T04:02:57;97192.88;;;0.88;58.57
48216;BME280;34005;48.844;10.098;2023-03-01T04:05:24;97192.19;;;0.86;58.65
48216;BME280;34005;48.844;10.098;2023-03-01T04:07:52;97194.63;;;0.87;58.64
48216;BME280;34005;48.844;10.098;2023-03-01T04:10:28;97190.19;;;0.89;58.51
48216;BME280;34005;48.844;10.098;2023-03-01T04:12:56;97186.59;;;0.92;58.62
48216;BME280;34005;48.844;10.098;2023-03-01T04:15:25;97189.88;;;0.94;58.62
48216;BME280;34005;48.844;10.098;2023-03-01T04:17:55;97184.72;;;0.94;58.49
48216;BME280;34005;48.844;10.098;2023-03-01T04:20:24;97192.25;;;0.97;58.41
48216;BME280;34005;48.844;10.098;2023-03-01T04:22:57;97187.81;;;0.99;58.79
48216;BME280;34005;48.844;10.098;2023-03-01T04:25:25;97191.09;;;1.01;58.59
48216;BME280;34005;48.844;10.098;2023-03-01T04:27:52;97188.53;;;1.01;58.52
48216;BME280;34005;48.844;10.098;2023-03-01T04:30:20;97180.81;;;1.01;58.51
48216;BME280;34005;48.844;10.098;2023-03-01T04:32:51;97177.41;;;1.00;58.56
48216;BME280;34005;48.844;10.098;2023-03-01T04:35:20;97186.88;;;1.00;58.92
48216;BME280;34005;48.844;10.098;2023-03-01T04:37:49;97195.31;;;1.02;58.66
48216;BME280;34005;48.844;10.098;2023-03-01T04:40:17;97184.31;;;1.00;58.47
48216;BME280;34005;48.844;10.098;2023-03-01T04:42:44;97183.72;;;0.96;58.72
48216;BME280;34005;48.844;10.098;2023-03-01T04:45:13;97185.69;;;0.93;58.58
48216;BME280;34005;48.844;10.098;2023-03-01T04:47:41;97190.09;;;0.91;58.79
48216;BME280;34005;48.844;10.098;2023-03-01T04:50:12;97191.13;;;0.88;58.75
48216;BME280;34005;48.844;10.098;2023-03-01T04:52:42;97188.66;;;0.87;59.03
48216;BME280;34005;48.844;10.098;2023-03-01T04:55:11;97184.16;;;0.90;59.46
48216;BME280;34005;48.844;10.098;2023-03-01T04:57:38;97182.06;;;0.95;59.38
48216;BME280;34005;48.844;10.098;2023-03-01T05:00:09;97184.63;;;0.95;58.87
48216;BME280;34005;48.844;10.098;2023-03-01T05:02:48;97184.53;;;0.97;58.70
48216;BME280;34005;48.844;10.098;2023-03-01T05:05:27;97177.53;;;0.99;59.07
48216;BME280;34005;48.844;10.098;2023-03-01T05:07:58;97178.25;;;1.01;58.80
48216;BME280;34005;48.844;10.098;2023-03-01T05:10:28;97180.13;;;0.99;58.46
48216;BME280;34005;48.844;10.098;2023-03-01T05:12:56;97178.47;;;0.98;58.50
48216;BME280;34005;48.844;10.098;2023-03-01T05:15:25;97178.25;;;1.01;58.56
48216;BME280;34005;48.844;10.098;2023-03-01T05:17:55;97179.31;;;0.98;58.67
48216;BME280;34005;48.844;10.098;2023-03-01T05:20:25;97177.75;;;0.96;58.68
48216;BME280;34005;48.844;10.098;2023-03-01T05:22:55;97181.44;;;0.92;58.88
48216;BME280;34005;48.844;10.098;2023-03-01T05:25:24;97182.38;;;0.91;58.81
48216;BME280;34005;48.844;10.098;2023-03-01T05:27:52;97179.72;;;0.92;59.16
48216;BME280;34005;48.844;10.098;2023-03-01T05:30:20;97183.19;;;0.91;59.04
48216;BME280;34005;48.844;10.098;2023-03-01T05:32:50;97181.69;;;0.89;59.06
48216;BME280;34005;48.844;10.098;2023-03-01T05:35:23;97171.81;;;0.82;59.07
48216;BME280;34005;48.844;10.098;2023-03-01T05:37:51;97176.25;;;0.80;59.13
48216;BME280;34005;48.844;10.098;2023-03-01T05:40:20;97173.91;;;0.77;59.45
48216;BME280;34005;48.844;10.098;2023-03-01T05:42:52;97176.66;;;0.74;59.67
48216;BME280;34005;48.844;10.098;2023-03-01T05:45:21;97180.19;;;0.73;59.36
48216;BME280;34005;48.844;10.098;2023-03-01T05:47:49;97172.88;;;0.67;59.59
48216;BME280;34005;48.844;10.098;2023-03-01T05:50:19;97177.44;;;0.64;59.75
48216;BME280;34005;48.844;10.098;2023-03-01T05:52:47;97179.47;;;0.58;59.66
48216;BME280;34005;48.844;10.098;2023-03-01T05:55:16;97181.88;;;0.49;59.52
48216;BME280;34005;48.844;10.098;2023-03-01T05:57:44;97176.44;;;0.40;59.74
48216;BME280;34005;48.844;10.098;2023-03-01T06:00:15;97181.47;;;0.29;60.36
48216;BME280;34005;48.844;10.098;2023-03-01T06:02:43;97182.09;;;0.20;60.19
48216;BME280;34005;48.844;10.098;2023-03-01T06:05:12;97183.22;;;0.16;60.54
48216;BME280;34005;48.844;10.098;2023-03-01T06:07:40;97186.69;;;0.15;60.64
48216;BME280;34005;48.844;10.098;2023-03-01T06:10:10;97185.06;;;0.14;60.72
48216;BME280;34005;48.844;10.098;2023-03-01T06:12:39;97180.13;;;0.11;60.80
48216;BME280;34005;48.844;10.098;2023-03-01T06:15:08;97184.75;;;0.06;60.84
48216;BME280;34005;48.844;10.098;2023-03-01T06:17:41;97183.13;;;0.05;61.07
48216;BME280;34005;48.844;10.098;2023-03-01T06:20:11;97177.06;;;0.06;61.44
48216;BME280;34005;48.844;10.098;2023-03-01T06:22:39;97179.84;;;0.03;60.71
48216;BME280;34005;48.844;10.098;2023-03-01T06:25:07;97175.81;;;-0.02;60.58
48216;BME280;34005;48.844;10.098;2023-03-01T06:27:35;97177.03;;;-0.07;60.46
48216;BME280;34005;48.844;10.098;2023-03-01T06:30:04;97180.94;;;-0.14;60.84
48216;BME280;34005;48.844;10.098;2023-03-01T06:32:32;97181.03;;;-0.16;60.78
48216;BME280;34005;48.844;10.098;2023-03-01T06:35:02;97183.81;;;-0.19;61.01
48216;BME280;34005;48.844;10.098;2023-03-01T06:37:31;97187.28;;;-0.20;61.25
48216;BME280;34005;48.844;10.098;2023-03-01T06:39:58;97187.09;;;-0.17;61.50
48216;BME280;34005;48.844;10.098;2023-03-01T06:42:26;97183.19;;;-0.10;61.20
48216;BME280;34005;48.844;10.098;2023-03-01T06:44:53;97179.28;;;-0.03;61.17
48216;BME280;34005;48.844;10.098;2023-03-01T06:47:21;97183.22;;;0.03;60.74
48216;BME280;34005;48.844;10.098;2023-03-01T06:49:48;97171.19;;;0.04;60.68
48216;BME280;34005;48.844;10.098;2023-03-01T06:52:17;97176.66;;;0.12;61.36
48216;BME280;34005;48.844;10.098;2023-03-01T06:54:45;97175.00;;;0.24;61.61
48216;BME280;34005;48.844;10.098;2023-03-01T06:57:12;97175.94;;;0.35;61.53
48216;BME280;34005;48.844;10.098;2023-03-01T06:59:40;97177.63;;;0.48;61.84
48216;BME280;34005;48.844;10.098;2023-03-01T07:02:09;97176.50;;;0.65;62.37
48216;BME280;34005;48.844;10.098;2023-03-01T07:04:37;97183.22;;;0.78;61.00
48216;BME280;34005;48.844;10.098;2023-03-01T07:07:05;97176.75;;;0.86;60.90
48216;BME280;34005;48.844;10.098;2023-03-01T07:09:34;97177.03;;;0.94;60.17
48216;BME280;34005;48.844;10.098;2023-03-01T07:12:02;97175.88;;;0.98;59.95
48216;BME280;34005;48.844;10.098;2023-03-01T07:14:30;97174.31;;;1.08;59.58
48216;BME280;34005;48.844;10.098;2023-03-01T07:16:58;97171.09;;;1.17;59.04
48216;BME280;34005;48.844;10.098;2023-03-01T07:19:25;97175.38;;;1.30;58.79
48216;BME280;34005;48.844;10.098;2023-03-01T07:21:53;97166.75;;;1.42;58.90
48216;BME280;34005;48.844;10.098;2023-03-01T07:24:22;97170.91;;;1.56;58.55
48216;BME280;34005;48.844;10.098;2023-03-01T07:26:51;97157.28;;;1.67;57.85
48216;BME280;34005;48.844;10.098;2023-03-01T07:29:19;97165.50;;;1.83;57.72
48216;BME280;34005;48.844;10.098;2023-03-01T07:31:47;97154.41;;;1.94;57.10
48216;BME280;34005;48.844;10.098;2023-03-01T07:34:14;97150.81;;;2.08;57.11
48216;BME280;34005;48.844;10.098;2023-03-01T07:36:42;97149.88;;;2.42;56.00
48216;BME280;34005;48.844;10.098;2023-03-01T07:39:11;97148.13;;;2.77;55.61
48216;BME280;34005;48.844;10.098;2023-03-01T07:41:39;97151.69;;;3.72;53.87
48216;BME280;34005;48.844;10.098;2023-03-01T07:44:08;97150.25;;;4.72;50.77
48216;BME280;34005;48.844;10.098;2023-03-01T07:46:35;97149.38;;;5.02;49.75
48216;BME280;34005;48.844;10.098;2023-03-01T07:49:03;97151.03;;;5.91;48.29
48216;BME280;34005;48.844;10.098;2023-03-01T07:51:31;97142.75;;;6.44;46.22
48216;BME280;34005;48.844;10.098;2023-03-01T07:53:59;97139.28;;;6.53;46.01
48216;BME280;34005;48.844;10.098;2023-03-01T07:56:27;97138.69;;;7.15;44.48
48216;BME280;34005;48.844;10.098;2023-03-01T07:58:55;97127.06;;;7.19;44.11
48216;BME280;34005;48.844;10.098;2023-03-01T08:01:24;97133.03;;;7.01;44.38
48216;BME280;34005;48.844;10.098;2023-03-01T08:03:52;97132.69;;;7.14;44.55
48216;BME280;34005;48.844;10.098;2023-03-01T08:06:19;97132.22;;;7.73;43.33
48216;BME280;34005;48.844;10.098;2023-03-01T08:08:47;97139.16;;;8.69;41.75
48216;BME280;34005;48.844;10.098;2023-03-01T08:11:15;97128.97;;;9.67;39.99
48216;BME280;34005;48.844;10.098;2023-03-01T08:13:47;97131.75;;;10.62;36.98
48216;BME280;34005;48.844;10.098;2023-03-01T08:16:26;97134.59;;;11.46;35.51
48216;BME280;34005;48.844;10.098;2023-03-01T08:18:54;97130.19;;;12.08;35.46
48216;BME280;34005;48.844;10.098;2023-03-01T08:21:23;97130.13;;;12.61;34.12
48216;BME280;34005;48.844;10.098;2023-03-01T08:23:51;97125.28;;;12.94;33.25
48216;BME280;34005;48.844;10.098;2023-03-01T08:26:20;97127.09;;;13.45;32.93
48216;BME280;34005;48.844;10.098;2023-03-01T08:28:49;97130.66;;;13.80;31.78
48216;BME280;34005;48.844;10.098;2023-03-01T08:31:20;97125.47;;;14.15;31.28
48216;BME280;34005;48.844;10.098;2023-03-01T08:33:51;97117.47;;;14.58;30.49
48216;BME280;34005;48.844;10.098;2023-03-01T08:36:22;97120.03;;;14.93;30.17
48216;BME280;34005;48.844;10.098;2023-03-01T08:38:50;97112.22;;;15.06;30.00
48216;BME280;34005;48.844;10.098;2023-03-01T08:41:18;97116.06;;;15.10;29.89
48216;BME280;34005;48.844;10.098;2023-03-01T08:43:46;97110.44;;;15.20;30.14
48216;BME280;34005;48.844;10.098;2023-03-01T08:46:14;97109.00;;;15.17;29.29
48216;BME280;34005;48.844;10.098;2023-03-01T08:48:42;97104.16;;;15.14;29.43
48216;BME280;34005;48.844;10.098;2023-03-01T08:51:13;97099.94;;;15.27;28.45
48216;BME280;34005;48.844;10.098;2023-03-01T08:53:46;97102.16;;;15.30;29.82
48216;BME280;34005;48.844;10.098;2023-03-01T08:56:14;97105.63;;;15.37;29.06
48216;BME280;34005;48.844;10.098;2023-03-01T08:58:43;97103.59;;;15.32;28.73
48216;BME280;34005;48.844;10.098;2023-03-01T09:01:13;97105.00;;;15.28;29.20
48216;BME280;34005;48.844;10.098;2023-03-01T09:03:41;97097.91;;;15.15;28.67
48216;BME280;34005;48.844;10.098;2023-03-01T09:06:12;97103.88;;;14.82;28.80
48216;BME280;34005;48.844;10.098;2023-03-01T09:08:41;97101.47;;;14.53;29.21
48216;BME280;34005;48.844;10.098;2023-03-01T09:11:11;97090.25;;;14.31;29.32
48216;BME280;34005;48.844;10.098;2023-03-01T09:13:39;97086.47;;;14.12;29.68
48216;BME280;34005;48.844;10.098;2023-03-01T09:16:10;97092.09;;;14.02;29.78
48216;BME280;34005;48.844;10.098;2023-03-01T09:18:38;97088.31;;;14.11;30.11
48216;BME280;34005;48.844;10.098;2023-03-01T09:21:08;97082.69;;;14.21;30.28
48216;BME280;34005;48.844;10.098;2023-03-01T09:23:39;97077.94;;;14.31;29.96
48216;BME280;34005;48.844;10.098;2023-03-01T09:26:08;97080.56;;;14.31;29.41
48216;BME280;34005;48.844;10.098;2023-03-01T09:28:37;97071.41;;;14.20;29.67
48216;BME280;34005;48.844;10.098;2023-03-01T09:31:05;97085.63;;;14.05;29.07
48216;BME280;34005;48.844;10.098;2023-03-01T09:33:33;97075.28;;;13.68;29.63
48216;BME280;34005;48.844;10.098;2023-03-01T09:36:03;97063.31;;;13.59;29.81
48216;BME280;34005;48.844;10.098;2023-03-01T09:38:31;97057.88;;;13.60;31.20
48216;BME280;34005;48.844;10.098;2023-03-01T09:41:01;97063.94;;;13.61;29.81
48216;BME280;34005;48.844;10.098;2023-03-01T09:43:42;97065.31;;;13.57;29.29
48216;BME280;34005;48.844;10.098;2023-03-01T09:46:14;97069.00;;;13.41;29.52
48216;BME280;34005;48.844;10.098;2023-03-01T09:48:46;97072.59;;;12.82;29.60
48216;BME280;34005;48.844;10.098;2023-03-01T09:51:18;97067.06;;;12.11;30.50
48216;BME280;34005;48.844;10.098;2023-03-01T09:53:46;97066.72;;;11.76;31.43
48216;BME280;34005;48.844;10.098;2023-03-01T09:56:19;97061.59;;;11.68;31.90
48216;BME280;34005;48.844;10.098;2023-03-01T09:59:24;97052.31;;;11.80;31.31
48216;BME280;34005;48.844;10.098;2023-03-01T10:01:56;97054.09;;;12.03;31.33
48216;BME280;34005;48.844;10.098;2023-03-01T10:04:32;97039.66;;;12.07;31.34
48216;BME280;34005;48.844;10.098;2023-03-01T10:07:14;97041.75;;;12.11;31.10
48216;BME280;34005;48.844;10.098;2023-03-01T10:09:45;97043.53;;;12.11;31.47
48216;BME280;34005;48.844;10.098;2023-03-01T10:12:17;97038.94;;;12.13;32.03
48216;BME280;34005;48.844;10.098;2023-03-01T10:14:54;97038.59;;;12.16;31.03
48216;BME280;34005;48.844;10.098;2023-03-01T10:17:27;97038.84;;;12.06;31.22
48216;BME280;34005;48.844;10.098;2023-03-01T10:20:10;97034.72;;;11.74;31.38
48216;BME280;34005;48.844;10.098;2023-03-01T10:22:41;97029.06;;;11.70;32.69
48216;BME280;34005;48.844;10.098;2023-03-01T10:25:13;97025.75;;;12.06;32.09
48216;BME280;34005;48.844;10.098;2023-03-01T10:27:46;97028.53;;;12.49;31.68
48216;BME280;34005;48.844;10.098;2023-03-01T10:30:19;97027.28;;;12.82;31.46
48216;BME280;34005;48.844;10.098;2023-03-01T10:32:49;97024.25;;;12.99;31.42
48216;BME280;34005;48.844;10.098;2023-03-01T10:35:20;97018.72;;;13.31;30.89
48216;BME280;34005;48.844;10.098;2023-03-01T10:37:58;97012.34;;;13.68;29.42
48216;BME280;34005;48.844;10.098;2023-03-01T10:40:29;97007.63;;;13.85;29.94
48216;BME280;34005;48.844;10.098;2023-03-01T10:43:00;97006.47;;;13.94;29.28
48216;BME280;34005;48.844;10.098;2023-03-01T10:45:34;96997.66;;;14.02;29.18
48216;BME280;34005;48.844;10.098;2023-03-01T10:48:04;96991.88;;;14.20;29.29
48216;BME280;34005;48.844;10.098;2023-03-01T10:50:32;96986.94;;;14.45;29.37
48216;BME280;34005;48.844;10.098;2023-03-01T10:53:02;96984.84;;;14.82;28.97
48216;BME280;34005;48.844;10.098;2023-03-01T10:55:34;96977.00;;;15.02;28.67
48216;BME280;34005;48.844;10.098;2023-03-01T10:58:18;96975.41;;;15.34;28.20
48216;BME280;34005;48.844;10.098;2023-03-01T11:00:48;96978.84;;;15.55;27.65
48216;BME280;34005;48.844;10.098;2023-03-01T11:03:21;96969.75;;;15.44;26.95
48216;BME280;34005;48.844;10.098;2023-03-01T11:05:55;96961.88;;;15.31;27.14
48216;BME280;34005;48.844;10.098;2023-03-01T11:08:32;96949.13;;;15.28;27.19
48216;BME280;34005;48.844;10.098;2023-03-01T11:11:06;96953.56;;;15.40;27.30
48216;BME280;34005;48.844;10.098;2023-03-01T11:13:35;96951.34;;;15.57;27.33
48216;BME280;34005;48.844;10.098;2023-03-01T11:16:07;96947.28;;;15.61;27.09
48216;BME280;34005;48.844;10.098;2023-03-01T11:18:37;96944.22;;;15.78;27.38
48216;BME280;34005;48.844;10.098;2023-03-01T11:21:14;96951.94;;;15.79;26.78
48216;BME280;34005;48.844;10.098;2023-03-01T11:23:43;96947.28;;;15.75;26.82
48216;BME280;34005;48.844;10.098;2023-03-01T11:26:13;96947.28;;;15.75;26.81
48216;BME280;34005;48.844;10.098;2023-03-01T11:28:49;96939.75;;;15.85;26.19
48216;BME280;34005;48.844;10.098;2023-03-01T11:31:18;96947.84;;;15.90;26.53
48216;BME280;34005;48.844;10.098;2023-03-01T11:33:50;96941.16;;;16.01;26.46
48216;BME280;34005;48.844;10.098;2023-03-01T11:36:28;96941.25;;;16.26;26.14
48216;BME280;34005;48.844;10.098;2023-03-01T11:39:03;96930.19;;;16.49;25.79
48216;BME280;34005;48.844;10.098;2023-03-01T11:41:34;96929.94;;;16.64;25.85
48216;BME280;34005;48.844;10.098;2023-03-01T11:44:11;96919.91;;;16.79;25.35
48216;BME280;34005;48.844;10.098;2023-03-01T11:49:54;96918.16;;;16.98;25.02
48216;BME280;34005;48.844;10.098;2023-03-01T11:52:34;96910.72;;;16.88;25.09
48216;BME280;34005;48.844;10.098;2023-03-01T11:55:17;96908.69;;;16.91;25.17
48216;BME280;34005;48.844;10.098;2023-03-01T11:58:00;96904.63;;;16.95;25.18
48216;BME280;34005;48.844;10.098;2023-03-01T12:00:47;96901.44;;;16.86;24.91
48216;BME280;34005;48.844;10.098;2023-03-01T12:03:29;96883.78;;;16.86;25.49
48216;BME280;34005;48.844;10.098;2023-03-01T12:06:10;96881.38;;;17.10;25.25
48216;BME280;34005;48.844;10.098;2023-03-01T12:08:43;96886.81;;;17.15;25.64
48216;BME280;34005;48.844;10.098;2023-03-01T12:11:25;96872.97;;;17.20;25.05
48216;BME280;34005;48.844;10.098;2023-03-01T12:14:13;96873.69;;;17.08;25.38
48216;BME280;34005;48.844;10.098;2023-03-01T12:16:59;96874.31;;;17.04;25.95
48216;BME280;34005;48.844;10.098;2023-03-01T12:19:52;96873.66;;;16.83;25.64
48216;BME280;34005;48.844;10.098;2023-03-01T12:22:30;96865.78;;;16.52;25.88
48216;BME280;34005;48.844;10.098;2023-03-01T12:25:13;96862.34;;;16.13;26.34
48216;BME280;34005;48.844;10.098;2023-03-01T12:28:04;96864.50;;;15.84;27.02
48216;BME280;34005;48.844;10.098;2023-03-01T12:30:46;96858.50;;;15.50;27.07
48216;BME280;34005;48.844;10.098;2023-03-01T12:33:24;96855.75;;;15.05;27.65
48216;BME280;34005;48.844;10.098;2023-03-01T12:36:18;96846.06;;;14.59;28.33
48216;BME280;34005;48.844;10.098;2023-03-01T12:38:50;96835.47;;;14.19;28.92
48216;BME280;34005;48.844;10.098;2023-03-01T12:41:34;96843.03;;;13.87;29.27
48216;BME280;34005;48.844;10.098;2023-03-01T12:44:13;96833.69;;;13.65;29.93
48216;BME280;34005;48.844;10.098;2023-03-01T12:46:52;96831.22;;;13.56;30.75
48216;BME280;34005;48.844;10.098;2023-03-01T12:49:30;96831.91;;;13.30;30.11
48216;BME280;34005;48.844;10.098;2023-03-01T12:52:02;96836.41;;;12.87;30.61
48216;BME280;34005;48.844;10.098;2023-03-01T12:54:36;96830.13;;;12.53;31.30
48216;BME280;34005;48.844;10.098;2023-03-01T12:57:11;96829.84;;;12.26;31.75
48216;BME280;34005;48.844;10.098;2023-03-01T12:59:47;96825.63;;;12.04;32.14
48216;BME280;34005;48.844;10.098;2023-03-01T13:02:23;96822.94;;;11.82;32.53
48216;BME280;34005;48.844;10.098;2023-03-01T13:05:02;96811.34;;;11.70;33.49
48216;BME280;34005;48.844;10.098;2023-03-01T13:07:37;96820.19;;;11.54;33.14
48216;BME280;34005;48.844;10.098;2023-03-01T13:10:21;96813.81;;;11.42;33.88
48216;BME280;34005;48.844;10.098;2023-03-01T13:12:53;96810.75;;;11.38;33.59
48216;BME280;34005;48.844;10.098;2023-03-01T13:15:30;96805.91;;;11.35;34.08
48216;BME280;34005;48.844;10.098;2023-03-01T13:17:59;96805.97;;;11.42;33.67
48216;BME280;34005;48.844;10.098;2023-03-01T13:20:33;96807.16;;;11.39;34.06